Time;durP1;ratioP1;P1;durP2;ratioP2;P2;SDS_P1;SDS_P2;PMS_P1;PMS_P2;Temp;Humidity;BMP_temperature;BMP_pressure;BME280_temperature;BME280_humidity;BME280_pressure;Samples;Min_cycle;Max_cycle;Signal;HPM_P1;HPM_P2
2022/09/29 00:01:25;;;;;;;;;7.00;6.00;;;;;13.28;64.89;99740.31;5082430;27;45470;-81
2022/09/29 00:03:50;;;;;;;;;4.50;4.50;;;;;13.32;64.67;99741.97;5077450;27;47853;-80
2022/09/29 00:06:17;;;;;;;;;5.75;5.00;;;;;13.29;64.94;99744.72;5079241;28;45519;-80
2022/09/29 00:08:44;;;;;;;;;5.50;5.50;;;;;13.30;64.78;99747.28;5078344;28;45346;-80
2022/09/29 00:11:12;;;;;;;;;7.00;7.00;;;;;13.22;65.06;99736.91;5061244;28;45273;-80
2022/09/29 00:13:38;;;;;;;;;4.75;4.50;;;;;13.23;65.05;99737.78;5071766;28;47380;-79
2022/09/29 00:16:04;;;;;;;;;8.50;6.00;;;;;13.22;64.96;99741.34;5077956;28;45404;-80
2022/09/29 00:18:32;;;;;;;;;5.00;5.00;;;;;13.19;64.94;99742.28;5073385;28;45468;-80
2022/09/29 00:21:04;;;;;;;;;4.25;3.00;;;;;13.22;65.55;99739.56;5068587;27;45436;-80
2022/09/29 00:23:32;;;;;;;;;5.00;5.00;;;;;13.21;65.18;99740.47;5080812;27;45533;-80
2022/09/29 00:26:19;;;;;;;;;5.00;4.00;;;;;13.16;65.39;99721.25;5076078;27;45282;-80
2022/09/29 00:28:52;;;;;;;;;4.75;4.75;;;;;13.16;65.41;99723.91;5075662;28;45417;-79
2022/09/29 00:31:18;;;;;;;;;3.75;3.50;;;;;13.20;64.90;99732.59;5070813;28;45275;-80
2022/09/29 00:33:44;;;;;;;;;4.00;4.00;;;;;13.17;64.98;99732.69;5068533;27;46324;-80
2022/09/29 00:36:13;;;;;;;;;4.25;3.75;;;;;13.08;65.05;99719.75;5087375;27;45476;-80
2022/09/29 00:38:39;;;;;;;;;3.75;2.50;;;;;13.08;64.68;99730.34;5075815;28;45393;-80
2022/09/29 00:41:06;;;;;;;;;3.00;3.00;;;;;13.08;64.86;99725.91;5061945;28;45416;-80
2022/09/29 00:43:49;;;;;;;;;2.50;2.50;;;;;13.14;64.78;99736.28;5075127;28;45536;-80
2022/09/29 00:46:18;;;;;;;;;3.00;3.00;;;;;13.11;64.71;99732.88;5075227;28;45282;-81
2022/09/29 00:48:46;;;;;;;;;5.50;5.00;;;;;13.15;65.04;99729.22;5069276;28;45212;-80
2022/09/29 00:51:12;;;;;;;;;2.50;2.50;;;;;13.11;65.08;99722.31;5068345;27;45176;-80
2022/09/29 00:53:39;;;;;;;;;4.00;3.00;;;;;13.14;64.99;99723.06;5073458;28;47055;-79
2022/09/29 00:56:09;;;;;;;;;3.50;2.75;;;;;13.14;65.00;99719.56;5073917;27;45336;-80
2022/09/29 00:58:50;;;;;;;;;3.00;3.00;;;;;13.11;64.71;99719.66;5068810;28;45274;-80
2022/09/29 01:01:15;;;;;;;;;2.00;2.00;;;;;13.09;64.97;99714.41;5080742;28;45477;-81
2022/09/29 01:03:45;;;;;;;;;3.00;3.00;;;;;13.10;64.76;99718.81;5080872;27;47824;-81
2022/09/29 01:06:16;;;;;;;;;0.00;0.00;;;;;13.09;64.68;99717.06;5084678;27;45344;-80
2022/09/29 01:08:44;;;;;;;;;2.00;2.00;;;;;13.06;64.75;99703.94;5080865;28;45464;-80
2022/09/29 01:11:13;;;;;;;;;3.00;3.00;;;;;13.05;64.71;99706.66;5068204;27;45335;-80
2022/09/29 01:13:40;;;;;;;;;2.00;2.00;;;;;12.99;64.50;99691.81;5089370;27;46800;-79
2022/09/29 01:16:06;;;;;;;;;2.33;2.00;;;;;12.98;64.78;99690.97;5074587;28;45547;-80
2022/09/29 01:18:32;;;;;;;;;3.00;2.00;;;;;13.03;64.74;99699.63;5071240;28;45431;-80
2022/09/29 01:21:13;;;;;;;;;2.67;2.67;;;;;13.02;64.91;99697.91;5075622;27;45339;-80
2022/09/29 01:23:56;;;;;;;;;2.75;2.00;;;;;13.09;64.90;99703.00;5064615;28;45508;-80
2022/09/29 01:26:59;;;;;;;;;3.25;2.00;;;;;13.10;64.69;99702.09;5059747;28;45367;-80
2022/09/29 01:29:54;;;;;;;;;2.50;2.50;;;;;13.12;64.69;99701.09;5067635;28;45204;-80
2022/09/29 01:32:43;;;;;;;;;2.75;2.75;;;;;13.16;64.87;99696.59;5047748;28;45331;-79
2022/09/29 01:35:15;;;;;;;;;3.00;3.00;;;;;13.16;64.86;99688.69;5066276;28;48894;-80
2022/09/29 01:38:02;;;;;;;;;3.00;3.00;;;;;13.19;64.67;99694.72;5071834;27;45285;-80
2022/09/29 01:40:53;;;;;;;;;2.50;2.50;;;;;13.23;64.82;99698.13;5072998;28;45386;-79
2022/09/29 01:43:44;;;;;;;;;4.00;4.00;;;;;13.19;64.75;99686.78;5071594;28;45608;-80
2022/09/29 01:46:25;;;;;;;;;5.00;4.50;;;;;13.20;65.12;99679.72;5071750;28;48141;-80
2022/09/29 01:48:54;;;;;;;;;4.00;4.00;;;;;13.25;64.62;99691.88;5067093;28;45320;-80
2022/09/29 01:51:26;;;;;;;;;3.75;3.75;;;;;13.23;64.63;99690.19;5094504;27;45374;-80
2022/09/29 01:53:57;;;;;;;;;2.75;2.00;;;;;13.24;64.79;99687.53;5087515;27;46231;-80
2022/09/29 01:56:34;;;;;;;;;8.00;5.75;;;;;13.28;64.85;99696.25;5062125;28;47380;-79
2022/09/29 01:59:05;;;;;;;;;2.25;1.75;;;;;13.27;64.65;99693.66;5079383;28;45331;-80
2022/09/29 02:01:35;;;;;;;;;6.00;6.00;;;;;13.30;64.72;99705.00;5076035;28;45378;-80
2022/09/29 02:04:08;;;;;;;;;3.00;2.50;;;;;13.27;64.94;99697.16;5060467;28;45512;-80
2022/09/29 02:06:42;;;;;;;;;5.00;4.00;;;;;13.31;64.82;99708.50;5083033;27;47178;-80
2022/09/29 02:09:16;;;;;;;;;3.75;3.75;;;;;13.25;64.56;99697.16;5080807;27;45424;-80
2022/09/29 02:11:42;;;;;;;;;3.50;3.00;;;;;13.28;64.78;99708.59;5068906;28;45344;-81
2022/09/29 02:14:13;;;;;;;;;6.00;5.00;;;;;13.23;64.78;99699.03;5078424;28;45453;-80
2022/09/29 02:16:46;;;;;;;;;3.00;3.00;;;;;13.27;64.63;99713.03;5080863;27;45488;-80
2022/09/29 02:19:20;;;;;;;;;5.50;5.00;;;;;13.29;64.73;99718.28;5065442;28;45272;-80
2022/09/29 02:21:46;;;;;;;;;5.00;5.00;;;;;13.25;64.59;99710.38;5067734;28;45287;-80
2022/09/29 02:24:11;;;;;;;;;4.50;4.50;;;;;13.20;64.78;99701.75;5074610;28;45222;-80
2022/09/29 02:26:39;;;;;;;;;4.00;4.00;;;;;13.28;64.63;99706.81;5080290;27;45804;-80
2022/09/29 02:29:05;;;;;;;;;5.50;4.00;;;;;13.25;64.72;99705.09;5079062;27;45401;-79
2022/09/29 02:31:32;;;;;;;;;4.00;4.00;;;;;13.23;64.91;99695.47;5067194;28;45464;-80
2022/09/29 02:34:00;;;;;;;;;4.50;4.50;;;;;13.28;64.44;99705.94;5072201;28;45204;-79
2022/09/29 02:36:42;;;;;;;;;5.00;5.00;;;;;13.20;64.73;99695.59;5072099;28;45237;-80
2022/09/29 02:39:28;;;;;;;;;6.00;6.00;;;;;13.26;64.84;99698.09;5067813;28;45413;-80
2022/09/29 02:42:11;;;;;;;;;4.25;4.00;;;;;13.26;65.02;99703.38;5073638;28;45309;-80
2022/09/29 02:44:55;;;;;;;;;6.00;4.00;;;;;13.24;64.86;99690.16;5073266;28;45418;-80
2022/09/29 02:47:36;;;;;;;;;4.00;3.00;;;;;13.23;65.09;99693.72;5071025;27;45705;-80
2022/09/29 02:50:31;;;;;;;;;5.00;5.00;;;;;13.22;65.06;99691.97;5073356;28;45572;-80
2022/09/29 02:53:29;;;;;;;;;3.50;3.50;;;;;13.25;64.90;99689.22;5071857;28;45268;-80
2022/09/29 02:56:10;;;;;;;;;3.75;3.75;;;;;13.24;64.89;99691.94;5070830;28;45417;-80
2022/09/29 02:58:49;;;;;;;;;4.75;4.75;;;;;13.19;65.04;99683.28;5068838;28;46250;-80
2022/09/29 03:01:15;;;;;;;;;4.00;2.50;;;;;13.16;64.68;99678.13;5079610;27;45598;-80
2022/09/29 03:03:41;;;;;;;;;3.00;3.00;;;;;13.15;65.24;99682.53;5069184;27;45382;-80
2022/09/29 03:06:07;;;;;;;;;4.25;4.25;;;;;13.17;65.12;99683.31;5075854;28;45441;-80
2022/09/29 03:08:33;;;;;;;;;3.00;3.00;;;;;13.18;65.04;99682.44;5078591;28;48199;-80
2022/09/29 03:10:58;;;;;;;;;3.25;3.25;;;;;13.22;65.07;99681.41;5077191;28;45282;-81
2022/09/29 03:13:24;;;;;;;;;5.75;3.25;;;;;13.25;64.78;99683.09;5090188;27;45339;-80
2022/09/29 03:15:49;;;;;;;;;3.25;3.25;;;;;13.25;64.72;99683.94;5077448;27;45282;-79
2022/09/29 03:18:15;;;;;;;;;3.25;3.25;;;;;13.25;65.15;99683.09;5068451;28;45605;-79
2022/09/29 03:20:40;;;;;;;;;5.00;4.75;;;;;13.23;65.05;99682.28;5066273;27;45211;-80
2022/09/29 03:23:05;;;;;;;;;4.00;4.00;;;;;13.21;64.91;99678.84;5079547;27;45218;-79
2022/09/29 03:25:31;;;;;;;;;5.25;4.50;;;;;13.23;65.01;99676.97;5075883;27;45318;-79
2022/09/29 03:27:56;;;;;;;;;3.50;3.00;;;;;13.26;64.81;99684.88;5059641;28;45344;-79
2022/09/29 03:30:22;;;;;;;;;5.50;3.50;;;;;13.27;64.91;99683.94;5070422;28;45245;-79
2022/09/29 03:32:48;;;;;;;;;3.25;3.25;;;;;13.21;65.30;99676.19;5066979;28;45288;-79
2022/09/29 03:35:13;;;;;;;;;5.00;5.00;;;;;13.22;65.26;99680.56;5081535;27;45534;-79
2022/09/29 03:37:39;;;;;;;;;3.75;3.75;;;;;13.19;65.03;99694.72;5070578;28;45719;-79
2022/09/29 03:40:05;;;;;;;;;5.25;5.00;;;;;13.18;65.32;99687.72;5072782;28;45462;-80
2022/09/29 03:42:31;;;;;;;;;5.25;4.25;;;;;13.17;65.17;99682.47;5062949;28;45304;-80
2022/09/29 03:44:57;;;;;;;;;3.50;3.50;;;;;13.23;65.41;99684.91;5063405;28;45515;-79
2022/09/29 03:47:22;;;;;;;;;5.25;4.00;;;;;13.19;65.21;99676.22;5081538;28;47303;-80
2022/09/29 03:49:48;;;;;;;;;4.00;3.00;;;;;13.15;65.55;99669.31;5097598;27;45447;-80
2022/09/29 03:52:19;;;;;;;;;4.50;4.50;;;;;13.16;65.61;99672.81;5074530;27;45266;-81
2022/09/29 03:54:44;;;;;;;;;3.25;3.25;;;;;13.15;65.40;99663.16;5075776;28;45407;-80
2022/09/29 03:57:10;;;;;;;;;3.00;3.00;;;;;13.14;65.71;99670.22;5063210;28;45416;-83
2022/09/29 03:59:35;;;;;;;;;5.25;4.00;;;;;13.18;65.34;99676.28;5079240;28;45412;-81
2022/09/29 04:02:01;;;;;;;;;4.00;4.00;;;;;13.18;65.50;99677.16;5081715;28;45417;-80
2022/09/29 04:04:26;;;;;;;;;4.75;4.75;;;;;13.16;65.60;99673.69;5079584;27;45383;-79
2022/09/29 04:06:52;;;;;;;;;4.25;4.25;;;;;13.23;65.68;99687.56;5070721;28;46258;-81
2022/09/29 04:09:17;;;;;;;;;3.50;3.25;;;;;13.23;65.89;99691.09;5082113;27;45317;-81
2022/09/29 04:11:43;;;;;;;;;3.00;3.00;;;;;13.20;65.72;99688.53;5063063;28;45410;-81
2022/09/29 04:14:09;;;;;;;;;6.00;5.00;;;;;13.23;65.32;99692.84;5077073;28;46024;-81
2022/09/29 04:16:34;;;;;;;;;3.75;3.75;;;;;13.20;65.98;99685.91;5091144;27;48247;-82
2022/09/29 04:18:59;;;;;;;;;2.75;2.75;;;;;13.21;65.89;99692.06;5062787;28;45350;-82
2022/09/29 04:21:25;;;;;;;;;3.75;3.75;;;;;13.15;65.88;99681.66;5098961;27;45779;-81
2022/09/29 04:23:50;;;;;;;;;3.75;3.75;;;;;13.18;65.77;99694.78;5081136;27;45668;-81
2022/09/29 04:26:16;;;;;;;;;4.50;4.00;;;;;13.21;65.78;99686.75;5073122;28;48127;-80
2022/09/29 04:28:42;;;;;;;;;5.00;4.75;;;;;13.23;65.93;99695.47;5075717;28;45261;-80
2022/09/29 04:31:08;;;;;;;;;4.25;3.25;;;;;13.19;65.67;99684.16;5071047;28;45220;-80
2022/09/29 04:33:33;;;;;;;;;2.75;2.75;;;;;13.24;66.30;99694.59;5068734;27;45528;-80
2022/09/29 04:35:59;;;;;;;;;3.25;3.25;;;;;13.21;65.57;99689.41;5089195;27;46944;-80
2022/09/29 04:38:25;;;;;;;;;5.00;5.00;;;;;13.16;65.76;99689.53;5074341;28;46260;-80
2022/09/29 04:40:50;;;;;;;;;5.50;5.00;;;;;13.21;65.81;99697.34;5069375;28;45381;-80
2022/09/29 04:43:16;;;;;;;;;4.00;3.75;;;;;13.16;65.63;99693.97;5081796;27;45566;-80
2022/09/29 04:45:42;;;;;;;;;3.00;3.00;;;;;13.18;66.04;99694.78;5072985;27;46311;-80
2022/09/29 04:48:08;;;;;;;;;5.00;5.00;;;;;13.18;65.55;99695.66;5076913;28;45531;-79
2022/09/29 04:50:33;;;;;;;;;4.50;4.00;;;;;13.14;65.75;99690.50;5079453;28;45278;-80
2022/09/29 04:52:59;;;;;;;;;3.00;3.00;;;;;13.14;65.90;99701.06;5081734;27;45568;-81
2022/09/29 04:55:25;;;;;;;;;5.75;4.75;;;;;13.03;66.17;99691.69;5073278;27;46431;-80
2022/09/29 04:57:51;;;;;;;;;2.00;2.00;;;;;13.06;66.03;99700.44;5074953;28;45286;-79
2022/09/29 05:00:16;;;;;;;;;5.50;3.50;;;;;12.97;66.20;99694.53;5080418;28;45298;-80
2022/09/29 05:02:42;;;;;;;;;5.25;3.50;;;;;12.95;66.62;99693.72;5079383;27;45417;-80
2022/09/29 05:05:09;;;;;;;;;3.75;3.75;;;;;12.94;66.78;99697.28;5070605;28;46330;-80
2022/09/29 05:07:35;;;;;;;;;6.50;6.25;;;;;12.86;66.73;99678.16;5079693;27;45353;-81
2022/09/29 05:10:01;;;;;;;;;3.75;3.00;;;;;12.86;66.62;99682.56;5080451;28;45317;-81
2022/09/29 05:12:26;;;;;;;;;3.00;3.00;;;;;12.84;66.36;99692.31;5094094;27;45464;-79
2022/09/29 05:14:51;;;;;;;;;2.25;2.25;;;;;12.82;66.87;99694.13;5076710;28;47027;-80
2022/09/29 05:17:17;;;;;;;;;4.75;3.50;;;;;12.79;66.61;99698.59;5061684;28;45399;-80
2022/09/29 05:19:42;;;;;;;;;5.00;5.00;;;;;12.79;66.99;99695.09;5074224;27;45373;-80
2022/09/29 05:22:08;;;;;;;;;6.00;5.00;;;;;12.77;66.91;99700.41;5074391;28;45354;-80
2022/09/29 05:24:33;;;;;;;;;4.00;3.00;;;;;12.77;66.78;99696.91;5068153;28;46509;-80
2022/09/29 05:26:58;;;;;;;;;3.33;3.33;;;;;12.77;66.97;99708.31;5077673;28;45271;-80
2022/09/29 05:29:24;;;;;;;;;4.00;2.00;;;;;12.76;66.91;99706.59;5089940;27;45990;-80
2022/09/29 05:31:50;;;;;;;;;5.50;4.50;;;;;12.83;67.15;99716.97;5060286;28;45471;-80
2022/09/29 05:34:16;;;;;;;;;6.00;5.00;;;;;12.73;67.15;99700.56;5088994;27;47814;-80
2022/09/29 05:36:41;;;;;;;;;5.00;5.00;;;;;12.75;67.16;99699.59;5061601;28;45255;-80
2022/09/29 05:39:07;;;;;;;;;6.00;3.75;;;;;12.70;67.34;99696.22;5071998;28;45213;-80
2022/09/29 05:41:32;;;;;;;;;4.00;4.00;;;;;12.79;67.28;99717.06;5075244;28;45451;-80
2022/09/29 05:44:00;;;;;;;;;4.25;4.25;;;;;12.76;66.92;99714.53;5071109;28;46698;-80
2022/09/29 05:46:26;;;;;;;;;7.50;5.25;;;;;12.70;67.58;99712.06;5073769;28;45421;-80
2022/09/29 05:48:53;;;;;;;;;5.25;4.75;;;;;12.72;67.11;99723.47;5072937;27;45483;-80
2022/09/29 05:51:22;;;;;;;;;3.50;3.50;;;;;12.67;67.47;99717.44;5074001;28;45470;-80
2022/09/29 05:53:47;;;;;;;;;6.50;5.00;;;;;12.70;67.30;99722.63;5060906;28;45559;-80
2022/09/29 05:56:16;;;;;;;;;3.50;3.00;;;;;12.69;67.61;99727.94;5061192;28;45412;-80
2022/09/29 05:58:42;;;;;;;;;6.50;5.00;;;;;12.68;67.63;99719.16;5077057;27;45341;-81
2022/09/29 06:01:10;;;;;;;;;5.25;5.00;;;;;12.64;67.69;99712.22;5079881;27;45587;-80
2022/09/29 06:03:36;;;;;;;;;5.75;5.50;;;;;12.70;67.53;99721.78;5070902;27;45327;-80
2022/09/29 06:06:13;;;;;;;;;6.50;5.00;;;;;12.67;67.76;99717.44;5073302;28;45285;-80
2022/09/29 06:08:40;;;;;;;;;6.50;4.00;;;;;12.71;67.66;99732.28;5079194;28;45347;-80
2022/09/29 06:11:11;;;;;;;;;7.50;7.50;;;;;12.74;67.70;99732.19;5079682;27;45585;-80
2022/09/29 06:13:42;;;;;;;;;5.00;5.00;;;;;12.69;67.53;99722.66;5069623;28;47349;-80
2022/09/29 06:16:09;;;;;;;;;8.00;7.50;;;;;12.70;67.86;99725.28;5073873;28;45435;-80
2022/09/29 06:18:35;;;;;;;;;6.00;6.00;;;;;12.74;67.99;99724.25;5072298;28;45194;-81
2022/09/29 06:21:03;;;;;;;;;6.00;5.75;;;;;12.76;67.50;99724.22;5064956;28;45284;-81
2022/09/29 06:23:28;;;;;;;;;7.50;5.00;;;;;12.81;67.87;99727.59;5068388;27;45447;-80
2022/09/29 06:25:58;;;;;;;;;8.25;7.00;;;;;12.84;67.66;99734.56;5089095;27;45459;-79
2022/09/29 06:28:24;;;;;;;;;7.25;5.25;;;;;12.78;67.42;99719.78;5073403;28;45229;-79
2022/09/29 06:30:49;;;;;;;;;6.50;5.50;;;;;12.83;67.53;99736.34;5066750;27;45582;-79
2022/09/29 06:33:15;;;;;;;;;8.00;7.50;;;;;12.71;67.52;99718.22;5067198;27;45600;-79
2022/09/29 06:38:32;;;;;;;;;9.25;8.00;;;;;12.78;67.84;99728.56;5076681;28;45427;-82
2022/09/29 06:40:57;;;;;;;;;6.25;5.00;;;;;12.83;67.78;99733.72;5067813;28;45392;-80
2022/09/29 06:43:23;;;;;;;;;7.25;5.50;;;;;12.82;67.47;99733.75;5072796;28;46266;-79
2022/09/29 06:45:49;;;;;;;;;5.75;5.75;;;;;12.79;67.95;99734.69;5070102;28;45293;-79
2022/09/29 06:48:14;;;;;;;;;5.50;4.25;;;;;12.83;67.74;99746.03;5081679;27;45282;-80
2022/09/29 06:50:39;;;;;;;;;7.25;6.50;;;;;12.73;67.74;99725.19;5069025;27;45187;-79
2022/09/29 06:53:05;;;;;;;;;6.00;4.50;;;;;12.76;67.59;99733.00;5071557;28;46855;-79
2022/09/29 06:55:30;;;;;;;;;6.25;5.50;;;;;12.75;67.84;99722.47;5068724;28;45366;-80
2022/09/29 06:57:56;;;;;;;;;5.25;4.00;;;;;12.78;67.69;99730.34;5061170;28;45286;-79
2022/09/29 07:00:21;;;;;;;;;5.00;4.50;;;;;12.84;68.01;99734.56;5079053;28;45590;-79
2022/09/29 07:02:47;;;;;;;;;6.75;5.75;;;;;12.85;67.94;99739.78;5060790;28;48048;-81
2022/09/29 07:05:12;;;;;;;;;6.25;6.25;;;;;12.87;67.50;99735.34;5069858;28;45217;-81
2022/09/29 07:07:37;;;;;;;;;8.75;7.50;;;;;12.94;67.64;99743.97;5079206;27;45444;-79
2022/09/29 07:10:03;;;;;;;;;7.75;7.25;;;;;12.94;67.84;99742.19;5080066;27;45469;-79
2022/09/29 07:12:29;;;;;;;;;4.25;4.25;;;;;12.97;67.34;99747.38;5064048;28;46572;-81
2022/09/29 07:14:54;;;;;;;;;5.00;5.00;;;;;13.03;67.13;99754.25;5078293;28;45404;-79
2022/09/29 07:17:19;;;;;;;;;6.00;6.00;;;;;13.07;67.56;99742.69;5077568;28;45347;-80
2022/09/29 07:19:45;;;;;;;;;6.00;6.00;;;;;13.18;67.38;99761.72;5074075;27;45395;-80
2022/09/29 07:22:11;;;;;;;;;9.00;9.00;;;;;13.20;67.41;99759.91;5074192;28;46965;-80
2022/09/29 07:24:36;;;;;;;;;8.75;8.75;;;;;13.23;67.29;99754.53;5069089;28;45264;-80
2022/09/29 07:27:01;;;;;;;;;5.50;5.50;;;;;13.29;66.94;99758.78;5068075;28;45441;-80
2022/09/29 07:29:31;;;;;;;;;8.00;7.00;;;;;13.39;66.57;99767.28;5073900;28;45354;-81
2022/09/29 07:31:58;;;;;;;;;8.25;8.25;;;;;13.42;66.51;99767.22;5076728;28;47581;-81
2022/09/29 07:34:23;;;;;;;;;7.00;6.25;;;;;13.46;66.36;99763.53;5083098;27;45468;-81
2022/09/29 07:36:49;;;;;;;;;8.25;7.75;;;;;13.52;66.07;99765.97;5068999;27;45359;-82
2022/09/29 07:39:15;;;;;;;;;6.50;6.25;;;;;13.61;66.22;99778.94;5072680;27;45426;-81
2022/09/29 07:41:41;;;;;;;;;6.25;6.00;;;;;13.61;66.26;99771.00;5075566;28;46611;-82
2022/09/29 07:44:06;;;;;;;;;9.50;9.50;;;;;13.69;65.88;99778.69;5070196;28;45436;-81
2022/09/29 07:46:31;;;;;;;;;9.75;8.00;;;;;13.74;65.92;99779.41;5081209;28;46252;-81
2022/09/29 07:48:57;;;;;;;;;7.00;7.00;;;;;13.72;65.49;99772.44;5073700;27;45488;-81
2022/09/29 07:51:23;;;;;;;;;8.75;7.25;;;;;13.80;65.76;99778.34;5075192;28;45540;-81
2022/09/29 07:53:48;;;;;;;;;8.25;6.50;;;;;13.84;65.55;99779.94;5070107;28;45340;-81
2022/09/29 07:56:17;;;;;;;;;8.50;6.75;;;;;13.90;65.28;99791.22;5069163;27;45319;-80
2022/09/29 07:58:43;;;;;;;;;9.50;8.75;;;;;13.94;65.37;99783.19;5078352;28;45264;-81
2022/09/29 08:01:11;;;;;;;;;8.75;8.75;;;;;13.92;64.75;99788.50;5080535;28;48155;-80
2022/09/29 08:03:41;;;;;;;;;9.75;8.75;;;;;13.97;65.10;99797.16;5072540;28;45378;-80
2022/09/29 08:06:07;;;;;;;;;8.50;6.25;;;;;13.98;64.94;99806.84;5077557;28;45274;-80
2022/09/29 08:08:40;;;;;;;;;8.50;7.50;;;;;13.99;64.82;99805.91;5081053;27;45508;-80
2022/09/29 08:11:12;;;;;;;;;8.25;7.50;;;;;13.95;64.79;99800.78;5068414;27;45318;-81
2022/09/29 08:13:38;;;;;;;;;10.25;10.25;;;;;13.99;64.68;99808.56;5081675;28;45484;-82
2022/09/29 08:16:06;;;;;;;;;14.75;13.50;;;;;13.97;64.27;99797.16;5076325;28;45377;-81
2022/09/29 08:18:33;;;;;;;;;10.00;9.25;;;;;14.06;64.35;99810.09;5073402;28;45429;-81
2022/09/29 08:21:00;;;;;;;;;10.50;10.50;;;;;14.05;64.26;99797.78;5068116;27;46267;-81
2022/09/29 08:23:26;;;;;;;;;10.25;10.00;;;;;14.10;63.90;99816.16;5069860;27;45456;-82
2022/09/29 08:26:03;;;;;;;;;12.00;10.00;;;;;14.20;64.02;99829.97;5073241;28;45429;-82
2022/09/29 08:28:30;;;;;;;;;9.50;8.25;;;;;14.18;63.86;99819.41;5074644;28;45287;-81
2022/09/29 08:30:56;;;;;;;;;7.50;7.50;;;;;14.33;63.75;99829.50;5066662;28;48177;-81
2022/09/29 08:33:22;;;;;;;;;9.00;9.00;;;;;14.39;63.51;99824.91;5068103;27;45180;-82
2022/09/29 08:35:55;;;;;;;;;9.50;9.50;;;;;14.49;63.28;99823.69;5068221;28;45262;-82
2022/09/29 08:38:21;;;;;;;;;18.75;16.50;;;;;14.62;63.24;99832.97;5083388;27;45563;-82
2022/09/29 08:40:46;;;;;;;;;9.25;9.25;;;;;14.77;62.87;99835.03;5072080;28;47722;-83
2022/09/29 08:43:30;;;;;;;;;7.75;7.75;;;;;14.97;62.84;99837.00;5073296;28;45221;-82
2022/09/29 08:46:07;;;;;;;;;8.00;8.00;;;;;15.11;61.99;99830.31;5070519;28;45377;-84
2022/09/29 08:48:42;;;;;;;;;11.00;10.00;;;;;15.24;61.60;99839.53;5061218;28;45358;-83
2022/09/29 08:51:26;;;;;;;;;6.50;6.50;;;;;15.31;61.59;99835.72;5060959;28;48290;-82
2022/09/29 08:53:54;;;;;;;;;7.75;7.25;;;;;15.39;61.03;99849.56;5062910;28;45808;-86
2022/09/29 08:56:20;;;;;;;;;8.50;8.50;;;;;15.46;60.87;99852.84;5078173;28;45630;-87
2022/09/29 08:58:45;;;;;;;;;10.75;10.00;;;;;15.47;60.71;99845.75;5076802;28;45484;-87
2022/09/29 09:01:33;;;;;;;;;9.25;8.00;;;;;15.52;60.38;99851.75;5078783;28;48070;-85
2022/09/29 09:04:27;;;;;;;;;7.75;7.75;;;;;15.54;60.07;99853.44;5066669;28;46079;-85
2022/09/29 09:07:26;;;;;;;;;7.00;7.00;;;;;15.58;59.74;99852.41;5068494;28;45523;-85
2022/09/29 09:09:58;;;;;;;;;8.50;7.50;;;;;15.65;59.50;99845.03;5076641;28;45527;-84
2022/09/29 09:12:47;;;;;;;;;10.25;8.00;;;;;15.71;59.35;99844.81;5075909;28;47119;-85
2022/09/29 09:15:24;;;;;;;;;7.00;7.00;;;;;15.85;58.93;99847.81;5077371;28;45342;-87
2022/09/29 09:18:08;;;;;;;;;4.67;4.67;;;;;15.97;58.47;99846.44;5073556;28;45282;-82
2022/09/29 09:20:40;;;;;;;;;3.33;3.00;;;;;16.10;57.30;99846.81;5077158;28;46716;-85
2022/09/29 09:23:55;;;;;;;;;1.00;1.00;;;;;16.24;56.46;99848.91;5078059;28;48200;-84
2022/09/29 09:26:38;;;;;;;;;5.00;4.00;;;;;16.36;56.32;99844.84;5061863;28;45694;-85
2022/09/29 09:29:10;;;;;;;;;4.00;4.00;;;;;16.56;56.09;99846.69;5078455;28;45290;-86
2022/09/29 09:31:45;;;;;;;;;3.00;3.00;;;;;16.65;56.12;99852.50;5078777;27;45450;-84
2022/09/29 09:34:19;;;;;;;;;6.33;6.00;;;;;16.78;55.50;99851.97;5064573;27;47158;-84
2022/09/29 09:36:49;;;;;;;;;5.00;4.00;;;;;16.83;55.32;99849.97;5077487;28;45559;-83
2022/09/29 09:39:25;;;;;;;;;4.33;4.33;;;;;16.91;55.02;99851.34;5073144;28;45587;-85
2022/09/29 09:41:55;;;;;;;;;5.33;5.33;;;;;16.94;54.87;99845.03;5078335;28;45477;-83
2022/09/29 09:44:32;;;;;;;;;5.25;5.25;;;;;16.99;55.12;99856.34;5077828;28;48294;-88
2022/09/29 09:47:18;;;;;;;;;6.67;6.00;;;;;17.02;54.54;99861.50;5079073;28;45425;-87
2022/09/29 09:49:51;;;;;;;;;9.33;8.00;;;;;17.02;54.89;99865.97;5078215;27;45524;-88
2022/09/29 09:52:39;;;;;;;;;5.33;5.33;;;;;17.03;54.95;99865.06;5064118;28;45552;-87
2022/09/29 09:55:13;;;;;;;;;6.33;6.33;;;;;16.95;54.92;99857.41;5072595;28;47075;-87
2022/09/29 09:57:44;;;;;;;;;8.00;8.00;;;;;16.90;54.89;99868.25;5064427;28;45328;-86
2022/09/29 10:00:19;;;;;;;;;5.00;5.00;;;;;16.82;54.90;99872.19;5078086;28;45461;-86
2022/09/29 10:02:48;;;;;;;;;6.33;5.33;;;;;16.68;54.94;99862.09;5075460;28;45421;-86
2022/09/29 10:05:16;;;;;;;;;7.00;6.00;;;;;16.59;54.74;99876.66;5062910;28;46270;-85
2022/09/29 10:07:44;;;;;;;;;6.67;4.67;;;;;16.47;54.80;99874.53;5073383;28;45459;-86
2022/09/29 10:10:25;;;;;;;;;8.67;5.33;;;;;16.31;54.75;99868.97;5092537;27;45480;-86
2022/09/29 10:13:10;;;;;;;;;6.00;6.00;;;;;16.30;54.97;99868.13;5079268;28;45373;-85
2022/09/29 10:15:54;;;;;;;;;7.75;7.50;;;;;16.38;55.45;99874.88;5078205;27;46367;-87
2022/09/29 10:18:39;;;;;;;;;5.00;5.00;;;;;16.41;55.37;99878.31;5069478;28;45353;-86
2022/09/29 10:21:34;;;;;;;;;5.33;3.00;;;;;16.46;55.23;99876.28;5074473;28;45535;-86
2022/09/29 10:24:01;;;;;;;;;7.00;7.00;;;;;16.50;55.23;99869.94;5076516;28;45481;-86
2022/09/29 10:26:36;;;;;;;;;8.75;7.75;;;;;16.61;55.10;99876.59;5078290;27;45696;-85
2022/09/29 10:29:17;;;;;;;;;9.33;7.00;;;;;16.77;54.84;99875.03;5074095;28;45294;-86
2022/09/29 10:31:42;;;;;;;;;5.33;5.00;;;;;16.97;54.55;99866.16;5067526;28;45545;-83
2022/09/29 10:34:12;;;;;;;;;7.00;7.00;;;;;17.24;54.01;99869.41;5064049;28;46365;-83
2022/09/29 10:36:52;;;;;;;;;6.67;6.00;;;;;17.46;53.52;99871.97;5076848;28;48196;-83
2022/09/29 10:39:38;;;;;;;;;7.00;7.00;;;;;17.63;53.42;99873.81;5067652;28;45397;-81
2022/09/29 10:42:15;;;;;;;;;7.00;6.33;;;;;17.80;53.33;99878.38;5070756;28;45313;-82
2022/09/29 10:44:40;;;;;;;;;5.33;5.33;;;;;17.91;52.68;99865.44;5070317;28;45454;-82
2022/09/29 10:47:14;;;;;;;;;1.00;1.00;;;;;18.05;52.33;99872.75;5076771;28;47108;-83
2022/09/29 10:49:39;;;;;;;;;4.67;4.67;;;;;18.17;52.31;99866.81;5082421;27;45654;-82
2022/09/29 10:52:17;;;;;;;;;5.00;5.00;;;;;18.41;51.19;99874.53;5078980;27;45618;-82
2022/09/29 10:54:58;;;;;;;;;6.00;5.33;;;;;18.59;50.96;99888.75;5075401;28;45504;-80
2022/09/29 10:57:30;;;;;;;;;7.00;6.00;;;;;18.71;50.73;99888.09;5076019;28;47152;-82
2022/09/29 10:59:56;;;;;;;;;4.00;4.00;;;;;18.82;50.58;99891.13;5074221;28;45495;-82
2022/09/29 11:02:33;;;;;;;;;4.33;4.33;;;;;18.85;49.83;99896.31;5079418;27;45471;-83
2022/09/29 11:05:03;;;;;;;;;4.00;4.00;;;;;18.77;50.16;99887.84;5073737;28;45586;-82
2022/09/29 11:07:30;;;;;;;;;2.33;2.33;;;;;18.63;49.44;99891.19;5081048;27;47200;-82
2022/09/29 11:09:56;;;;;;;;;12.00;12.00;;;;;18.44;49.59;99893.03;5065850;28;45215;-82
2022/09/29 11:12:24;;;;;;;;;14.50;14.00;;;;;18.28;50.90;99901.81;5080250;27;45491;-82
2022/09/29 11:14:50;;;;;;;;;12.50;11.50;;;;;18.03;51.48;99898.59;5073368;28;45543;-82
2022/09/29 11:17:27;;;;;;;;;15.50;14.50;;;;;17.80;52.27;99905.88;5089325;27;45741;-80
2022/09/29 11:19:57;;;;;;;;;17.50;16.25;;;;;17.52;53.08;99906.25;5076445;27;45856;-82
2022/09/29 11:22:49;;;;;;;;;16.50;15.00;;;;;17.25;53.95;99916.34;5075857;28;45451;-81
2022/09/29 11:25:55;;;;;;;;;19.00;18.00;;;;;16.96;55.06;99929.13;5069711;28;45445;-83
2022/09/29 11:28:35;;;;;;;;;13.00;11.75;;;;;16.59;56.02;99929.78;5038537;28;47075;-81
2022/09/29 11:31:08;;;;;;;;;17.75;15.75;;;;;16.39;56.83;99941.25;5078014;27;45575;-83
2022/09/29 11:33:45;;;;;;;;;11.25;11.25;;;;;16.19;57.42;99950.00;5076984;28;45426;-84
2022/09/29 11:36:20;;;;;;;;;16.75;11.25;;;;;16.01;57.81;99943.66;5066228;28;45629;-82
2022/09/29 11:39:00;;;;;;;;;13.75;13.75;;;;;15.85;58.51;99950.44;5076110;28;45542;-82
2022/09/29 11:41:45;;;;;;;;;12.75;12.00;;;;;15.70;59.04;99949.25;5063240;28;46197;-82
2022/09/29 11:44:42;;;;;;;;;14.50;14.25;;;;;15.59;60.05;99946.13;5077701;28;45483;-82
2022/09/29 11:47:16;;;;;;;;;11.75;11.25;;;;;15.47;60.70;99952.72;5077187;28;45815;-81
2022/09/29 11:50:06;;;;;;;;;13.00;12.00;;;;;15.36;60.64;99955.75;5069367;28;47751;-82
2022/09/29 11:52:52;;;;;;;;;14.50;12.50;;;;;15.26;60.70;99958.81;5064087;28;45496;-82